Ikan Kerapu — 3FMP7 — position and weather

sailwx.info

Track history (hours):
 
Tides and Currents Weather Stations Pressure Air Temp Water Temp Dewpoint Dewpoint Depression Visibility Wind Speed Wind Dir Waves Ship Positions

Ikan Kerapu

Last reported at 2018-Jun-18 13:29 UTC. Time now 2018-Jun-18 13:36 UTC.
Position N 51°56' E 004°03'.

Length 225 m; draft 13.8 m.

Type: Cargo ship. MMSI: 356626000.

Date/timePositionNaut miles runAvg speedWind from/ knotsBaromVisibWave heightAir tempDewpointWater temp
2018-Jun-18 13:29N 51°56' E 004°03'0 0.0
2018-Jun-18 12:59N 51°56' E 004°03'0 0.0
2018-Jun-18 12:29N 51°56' E 004°03'0 0.0
2018-Jun-18 11:59N 51°56' E 004°03'0 0.0
2018-Jun-18 11:29N 51°56' E 004°03'0 0.0
2018-Jun-18 10:59N 51°56' E 004°03'0 0.0
2018-Jun-18 10:29N 51°56' E 004°03'0 0.0
2018-Jun-18 09:59N 51°56' E 004°03'0 0.0
2018-Jun-18 09:29N 51°56' E 004°03'0 0.0
2018-Jun-18 08:59N 51°56' E 004°03'0 0.0
2018-Jun-18 08:29N 51°56' E 004°03'0 0.0
2018-Jun-18 07:59N 51°56' E 004°03'0 0.0
2018-Jun-18 07:29N 51°56' E 004°03'0 0.0
2018-Jun-18 06:59N 51°56' E 004°03'0 0.0
2018-Jun-18 06:29N 51°56' E 004°03'0 0.0
2018-Jun-18 05:59N 51°56' E 004°03'0 0.0
2018-Jun-18 05:29N 51°56' E 004°03'0 0.0
2018-Jun-18 04:59N 51°56' E 004°03'0 0.0
2018-Jun-18 04:29N 51°56' E 004°03'0 0.0
2018-Jun-18 03:59N 51°56' E 004°03'0 0.0
2018-Jun-18 03:29N 51°56' E 004°03'0 0.0
2018-Jun-18 02:59N 51°56' E 004°03'0 0.0
2018-Jun-18 02:29N 51°56' E 004°03'0 0.0
2018-Jun-18 01:59N 51°56' E 004°03'0 0.0
2018-Jun-18 01:29N 51°56' E 004°03'0 0.0
2018-Jun-18 00:59N 51°56' E 004°03'0 0.0
2018-Jun-18 00:29N 51°56' E 004°03'0 0.0
2018-Jun-17 23:59N 51°56' E 004°03'0 0.0
2018-Jun-17 23:29N 51°56' E 004°03'0 0.0
2018-Jun-17 22:59N 51°56' E 004°03'0 0.0
2018-Jun-17 22:26N 51°56' E 004°03'0 0.0
2018-Jun-17 21:59N 51°56' E 004°03'0 0.1
2018-Jun-17 21:29N 51°56' E 004°03'0 0.0
2018-Jun-17 20:59N 51°56' E 004°03'0 0.0
2018-Jun-17 20:29N 51°56' E 004°03'0 0.0
2018-Jun-17 19:59N 51°56' E 004°03'0 0.0
2018-Jun-17 19:29N 51°56' E 004°03'0 0.0
2018-Jun-17 18:59N 51°56' E 004°03'0 0.0
2018-Jun-17 18:29N 51°56' E 004°03'0 0.0
2018-Jun-17 17:59N 51°56' E 004°03'0 0.0
2018-Jun-17 17:29N 51°56' E 004°03'0 0.0
2018-Jun-17 16:59N 51°56' E 004°03'0 0.0
2018-Jun-17 16:29N 51°56' E 004°03'0 0.0
2018-Jun-17 15:59N 51°56' E 004°03'0 0.0
2018-Jun-17 15:29N 51°56' E 004°03'0 0.0
2018-Jun-17 14:59N 51°56' E 004°03'0 0.0
2018-Jun-17 14:29N 51°56' E 004°03'0 0.0
2018-Jun-17 13:59N 51°56' E 004°03'0 0.0
2018-Jun-17 13:29N 51°56' E 004°03'0 0.0
2018-Jun-17 12:59N 51°56' E 004°03'0 0.0
2018-Jun-17 12:29N 51°56' E 004°03'0 0.0
2018-Jun-17 11:59N 51°56' E 004°03'0 0.0
2018-Jun-17 11:29N 51°56' E 004°03'0 0.0
2018-Jun-17 10:59N 51°56' E 004°03'0 0.0
2018-Jun-17 10:29N 51°56' E 004°03'0 0.0
2018-Jun-17 09:59N 51°56' E 004°03'0 0.0
2018-Jun-17 09:29N 51°56' E 004°03'0 0.0
2018-Jun-17 08:59N 51°56' E 004°03'0 0.0
2018-Jun-17 08:29N 51°56' E 004°03'0 0.0
2018-Jun-17 07:59N 51°56' E 004°03'0 0.0
2018-Jun-17 07:29N 51°56' E 004°03'0 0.0
2018-Jun-17 06:59N 51°56' E 004°03'0 0.0
2018-Jun-17 06:29N 51°56' E 004°03'0 0.1
2018-Jun-17 06:00N 51°56' E 004°03'1 2.3
2018-Jun-17 05:31N 51°57' E 004°05'2 4.3
2018-Jun-17 05:01N 51°59' E 004°04'3 6.8
2018-Jun-17 04:31N 52°00' E 003°59'5 9.2
2018-Jun-17 04:00N 52°00' E 003°52'3 5.3
2018-Jun-17 03:31N 51°59' E 003°48'2 4.5
2018-Jun-17 03:00N 51°59' E 003°44'3 6.8
2018-Jun-17 02:30N 51°58' E 003°39'4 8.6
2018-Jun-17 02:00N 52°02' E 003°37'611.4
2018-Jun-17 01:30N 52°07' E 003°31'612.3
2018-Jun-17 01:00N 52°10' E 003°23'612.1
2018-Jun-17 00:31N 52°16' E 003°24'612.9
2018-Jun-17 00:00N 52°23' E 003°26'713.1
2018-Jun-16 23:27N 52°30' E 003°28'613.0
2018-Jun-16 23:00N 52°36' E 003°30'712.9
2018-Jun-16 22:28N 52°41' E 003°37'712.8
2018-Jun-16 21:57N 52°46' E 003°44'3011.6
2018-Jun-16 19:22N 53°07' E 004°20'410.7
2018-Jun-16 19:00N 53°10' E 004°25'610.2
2018-Jun-16 18:24N 53°15' E 004°29'1510.7
2018-Jun-16 17:01N 53°30' E 004°36'011.8
2018-Jun-16 16:59N 53°30' E 004°36'612.1
2018-Jun-16 16:31N 53°35' E 004°40'712.5
2018-Jun-16 15:59N 53°41' E 004°44'12712.3
2018-Jun-16 05:38N 55°38' E 006°11'412.1
2018-Jun-16 05:20N 55°42' E 006°13'412.4
2018-Jun-16 04:58N 55°46' E 006°17'612.4
2018-Jun-16 04:28N 55°51' E 006°22'612.5
2018-Jun-16 04:00N 55°56' E 006°26'18310.2
2018-Jun-15 10:10N 57°48' E 010°51'210.6
2018-Jun-15 09:59N 57°47' E 010°53'610.9
2018-Jun-15 09:28N 57°42' E 011°00'511.7
2018-Jun-15 09:00N 57°39' E 011°07'611.8
2018-Jun-15 08:30N 57°34' E 011°15'611.7
2018-Jun-15 08:00N 57°30' E 011°23'611.4
2018-Jun-15 07:30N 57°26' E 011°29'611.6
2018-Jun-15 07:00N 57°20' E 011°32'12810.0
2018-Jun-14 18:16N 55°13' E 011°06'310.4
2018-Jun-14 18:00N 55°11' E 011°04'510.7
2018-Jun-14 17:30N 55°06' E 010°59'611.2
2018-Jun-14 17:01N 55°01' E 010°59'510.6
2018-Jun-14 16:30N 54°57' E 010°54'510.3
2018-Jun-14 16:00N 54°52' E 010°50'4 7.7
2018-Jun-14 15:30N 54°48' E 010°50'510.6
2018-Jun-14 15:00N 54°43' E 010°47'5 9.9
2018-Jun-14 14:30N 54°39' E 010°52'510.8
2018-Jun-14 14:00N 54°36' E 011°00'510.5
2018-Jun-14 13:30N 54°36' E 011°09'510.6
2018-Jun-14 13:00N 54°35' E 011°18'611.3
2018-Jun-14 12:30N 54°32' E 011°26'611.1
2018-Jun-14 12:01N 54°30' E 011°35'611.8
2018-Jun-14 11:31N 54°27' E 011°44'611.3
2018-Jun-14 11:00N 54°26' E 011°54'911.3
2018-Jun-14 10:15N 54°26' E 012°08'310.3
2018-Jun-14 10:00N 54°28' E 012°12'510.7
2018-Jun-14 09:30N 54°33' E 012°15'4 8.2
2018-Jun-14 09:00N 54°37' E 012°17'5411.7
2018-Jun-14 04:24N 54°59' E 013°42'712.3
2018-Jun-14 03:49N 55°02' E 013°53'411.8
2018-Jun-14 03:29N 55°03' E 013°60'611.4
2018-Jun-14 03:00N 55°07' E 014°07'812.5
2018-Jun-14 02:21N 55°13' E 014°16'412.5
2018-Jun-14 02:00N 55°16' E 014°21'612.5
2018-Jun-14 01:30N 55°21' E 014°28'612.5
2018-Jun-14 01:00N 55°26' E 014°35'612.3
2018-Jun-14 00:30N 55°29' E 014°44'612.3
2018-Jun-14 00:00N 55°32' E 014°54'612.3
2018-Jun-13 23:30N 55°35' E 015°03'612.3
2018-Jun-13 23:00N 55°38' E 015°13'612.3
2018-Jun-13 22:30N 55°39' E 015°24'612.3
2018-Jun-13 22:00N 55°40' E 015°35'612.0
2018-Jun-13 21:28N 55°41' E 015°46'  
Track history (hours):
 
Tides and Currents Weather Stations Pressure Air Temp Water Temp Dewpoint Dewpoint Depression Visibility Wind Speed Wind Dir Waves Ship Positions

Ikan Kerapu

Last reported at 2018-Jun-18 13:29 UTC. Time now 2018-Jun-18 13:36 UTC.
Position N 51°56' E 004°03'.

Length 225 m; draft 13.8 m.

Type: Cargo ship. MMSI: 356626000.

Date/timePositionNaut miles runAvg speedWind from/ knotsBaromVisibWave heightAir tempDewpointWater temp
2018-Jun-18 13:29N 51°56' E 004°03'0 0.0
2018-Jun-18 12:59N 51°56' E 004°03'0 0.0
2018-Jun-18 12:29N 51°56' E 004°03'0 0.0
2018-Jun-18 11:59N 51°56' E 004°03'0 0.0
2018-Jun-18 11:29N 51°56' E 004°03'0 0.0
2018-Jun-18 10:59N 51°56' E 004°03'0 0.0
2018-Jun-18 10:29N 51°56' E 004°03'0 0.0
2018-Jun-18 09:59N 51°56' E 004°03'0 0.0
2018-Jun-18 09:29N 51°56' E 004°03'0 0.0
2018-Jun-18 08:59N 51°56' E 004°03'0 0.0
2018-Jun-18 08:29N 51°56' E 004°03'0 0.0
2018-Jun-18 07:59N 51°56' E 004°03'0 0.0
2018-Jun-18 07:29N 51°56' E 004°03'0 0.0
2018-Jun-18 06:59N 51°56' E 004°03'0 0.0
2018-Jun-18 06:29N 51°56' E 004°03'0 0.0
2018-Jun-18 05:59N 51°56' E 004°03'0 0.0
2018-Jun-18 05:29N 51°56' E 004°03'0 0.0
2018-Jun-18 04:59N 51°56' E 004°03'0 0.0
2018-Jun-18 04:29N 51°56' E 004°03'0 0.0
2018-Jun-18 03:59N 51°56' E 004°03'0 0.0
2018-Jun-18 03:29N 51°56' E 004°03'0 0.0
2018-Jun-18 02:59N 51°56' E 004°03'0 0.0
2018-Jun-18 02:29N 51°56' E 004°03'0 0.0
2018-Jun-18 01:59N 51°56' E 004°03'0 0.0
2018-Jun-18 01:29N 51°56' E 004°03'0 0.0
2018-Jun-18 00:59N 51°56' E 004°03'0 0.0
2018-Jun-18 00:29N 51°56' E 004°03'0 0.0
2018-Jun-17 23:59N 51°56' E 004°03'0 0.0
2018-Jun-17 23:29N 51°56' E 004°03'0 0.0
2018-Jun-17 22:59N 51°56' E 004°03'0 0.0
2018-Jun-17 22:26N 51°56' E 004°03'0 0.0
2018-Jun-17 21:59N 51°56' E 004°03'0 0.1
2018-Jun-17 21:29N 51°56' E 004°03'0 0.0
2018-Jun-17 20:59N 51°56' E 004°03'0 0.0
2018-Jun-17 20:29N 51°56' E 004°03'0 0.0
2018-Jun-17 19:59N 51°56' E 004°03'0 0.0
2018-Jun-17 19:29N 51°56' E 004°03'0 0.0
2018-Jun-17 18:59N 51°56' E 004°03'0 0.0
2018-Jun-17 18:29N 51°56' E 004°03'0 0.0
2018-Jun-17 17:59N 51°56' E 004°03'0 0.0
2018-Jun-17 17:29N 51°56' E 004°03'0 0.0
2018-Jun-17 16:59N 51°56' E 004°03'0 0.0
2018-Jun-17 16:29N 51°56' E 004°03'0 0.0
2018-Jun-17 15:59N 51°56' E 004°03'0 0.0
2018-Jun-17 15:29N 51°56' E 004°03'0 0.0
2018-Jun-17 14:59N 51°56' E 004°03'0 0.0
2018-Jun-17 14:29N 51°56' E 004°03'0 0.0
2018-Jun-17 13:59N 51°56' E 004°03'0 0.0
2018-Jun-17 13:29N 51°56' E 004°03'0 0.0
2018-Jun-17 12:59N 51°56' E 004°03'0 0.0
2018-Jun-17 12:29N 51°56' E 004°03'0 0.0
2018-Jun-17 11:59N 51°56' E 004°03'0 0.0
2018-Jun-17 11:29N 51°56' E 004°03'0 0.0
2018-Jun-17 10:59N 51°56' E 004°03'0 0.0
2018-Jun-17 10:29N 51°56' E 004°03'0 0.0
2018-Jun-17 09:59N 51°56' E 004°03'0 0.0
2018-Jun-17 09:29N 51°56' E 004°03'0 0.0
2018-Jun-17 08:59N 51°56' E 004°03'0 0.0
2018-Jun-17 08:29N 51°56' E 004°03'0 0.0
2018-Jun-17 07:59N 51°56' E 004°03'0 0.0
2018-Jun-17 07:29N 51°56' E 004°03'0 0.0
2018-Jun-17 06:59N 51°56' E 004°03'0 0.0
2018-Jun-17 06:29N 51°56' E 004°03'0 0.1
2018-Jun-17 06:00N 51°56' E 004°03'1 2.3
2018-Jun-17 05:31N 51°57' E 004°05'2 4.3
2018-Jun-17 05:01N 51°59' E 004°04'3 6.8
2018-Jun-17 04:31N 52°00' E 003°59'5 9.2
2018-Jun-17 04:00N 52°00' E 003°52'3 5.3
2018-Jun-17 03:31N 51°59' E 003°48'2 4.5
2018-Jun-17 03:00N 51°59' E 003°44'3 6.8
2018-Jun-17 02:30N 51°58' E 003°39'4 8.6
2018-Jun-17 02:00N 52°02' E 003°37'611.4
2018-Jun-17 01:30N 52°07' E 003°31'612.3
2018-Jun-17 01:00N 52°10' E 003°23'612.1
2018-Jun-17 00:31N 52°16' E 003°24'612.9
2018-Jun-17 00:00N 52°23' E 003°26'713.1
2018-Jun-16 23:27N 52°30' E 003°28'613.0
2018-Jun-16 23:00N 52°36' E 003°30'712.9
2018-Jun-16 22:28N 52°41' E 003°37'712.8
2018-Jun-16 21:57N 52°46' E 003°44'3011.6
2018-Jun-16 19:22N 53°07' E 004°20'410.7
2018-Jun-16 19:00N 53°10' E 004°25'610.2
2018-Jun-16 18:24N 53°15' E 004°29'1510.7
2018-Jun-16 17:01N 53°30' E 004°36'011.8
2018-Jun-16 16:59N 53°30' E 004°36'612.1
2018-Jun-16 16:31N 53°35' E 004°40'712.5
2018-Jun-16 15:59N 53°41' E 004°44'12712.3
2018-Jun-16 05:38N 55°38' E 006°11'412.1
2018-Jun-16 05:20N 55°42' E 006°13'412.4
2018-Jun-16 04:58N 55°46' E 006°17'612.4
2018-Jun-16 04:28N 55°51' E 006°22'612.5
2018-Jun-16 04:00N 55°56' E 006°26'18310.2
2018-Jun-15 10:10N 57°48' E 010°51'210.6
2018-Jun-15 09:59N 57°47' E 010°53'610.9
2018-Jun-15 09:28N 57°42' E 011°00'511.7
2018-Jun-15 09:00N 57°39' E 011°07'611.8
2018-Jun-15 08:30N 57°34' E 011°15'611.7
2018-Jun-15 08:00N 57°30' E 011°23'611.4
2018-Jun-15 07:30N 57°26' E 011°29'611.6
2018-Jun-15 07:00N 57°20' E 011°32'12810.0
2018-Jun-14 18:16N 55°13' E 011°06'310.4
2018-Jun-14 18:00N 55°11' E 011°04'510.7
2018-Jun-14 17:30N 55°06' E 010°59'611.2
2018-Jun-14 17:01N 55°01' E 010°59'510.6
2018-Jun-14 16:30N 54°57' E 010°54'510.3
2018-Jun-14 16:00N 54°52' E 010°50'4 7.7
2018-Jun-14 15:30N 54°48' E 010°50'510.6
2018-Jun-14 15:00N 54°43' E 010°47'5 9.9
2018-Jun-14 14:30N 54°39' E 010°52'510.8
2018-Jun-14 14:00N 54°36' E 011°00'510.5
2018-Jun-14 13:30N 54°36' E 011°09'510.6
2018-Jun-14 13:00N 54°35' E 011°18'611.3
2018-Jun-14 12:30N 54°32' E 011°26'611.1
2018-Jun-14 12:01N 54°30' E 011°35'611.8
2018-Jun-14 11:31N 54°27' E 011°44'611.3
2018-Jun-14 11:00N 54°26' E 011°54'911.3
2018-Jun-14 10:15N 54°26' E 012°08'310.3
2018-Jun-14 10:00N 54°28' E 012°12'510.7
2018-Jun-14 09:30N 54°33' E 012°15'4 8.2
2018-Jun-14 09:00N 54°37' E 012°17'5411.7
2018-Jun-14 04:24N 54°59' E 013°42'712.3
2018-Jun-14 03:49N 55°02' E 013°53'411.8
2018-Jun-14 03:29N 55°03' E 013°60'611.4
2018-Jun-14 03:00N 55°07' E 014°07'812.5
2018-Jun-14 02:21N 55°13' E 014°16'412.5
2018-Jun-14 02:00N 55°16' E 014°21'612.5
2018-Jun-14 01:30N 55°21' E 014°28'612.5
2018-Jun-14 01:00N 55°26' E 014°35'612.3
2018-Jun-14 00:30N 55°29' E 014°44'612.3
2018-Jun-14 00:00N 55°32' E 014°54'612.3
2018-Jun-13 23:30N 55°35' E 015°03'612.3
2018-Jun-13 23:00N 55°38' E 015°13'612.3
2018-Jun-13 22:30N 55°39' E 015°24'612.3
2018-Jun-13 22:00N 55°40' E 015°35'612.0
2018-Jun-13 21:28N 55°41' E 015°46'  

Dump ship's entire track history